Thunder radar more information blitzortung!


avis per Pluja more information rain snow radar


Visita la nostra xarxa de llocs de meteo:

Template documentation
and downloads

And another site



Rain From: 17-10-2018 23:00 Until: 18-10-2018 16:59 warning for: Rain Level: Yellow info button

Pagina Historial Weather Underground text

Diari Resum May 3, 2016 Unitats:  Mètric    Imperial   Tant
« Previous Dia
SegĂźent Dia »
Diari Setmana Mensual Anual Personalitzada
  Maxima: Minima: Media:
Temperatura: -17.8 °C -12.9 °C -8.6 °C
Punt de rosada: -17.8 °C -16.8 °C -13.6 °C
Humitat: Humidity % 35 % 56 %
Wind Speed: 0 km/h 0 km/h 13.2 km/h
RĂ fegues de vent: 0 km/h - -
Vent:- - ESE
Pression baro: 0 hPa 34567.7 hPa -
Precipitacions: 0 mm    
Historical Graphs
 
 
Dades de taula per May 3, 2016
Temps Temperatura Punt de rosada Pression baro Vent Wind Speed RĂ fegues de vent Humitat Rainfall Rate (Hourly)
-17.8 °C -17.8 °C 0 hPa Calm     Humidity % 0 mm
00:00 -12.3 °C -16.2 °C 34601.5 hPa NE 2.6 km/h 5.1 km/h 62 % 0 mm
00:03 -9.8 °C -15.4 °C 34601.5 hPa East 6 km/h 6 km/h 51 % 0 mm
00:08 -9.8 °C -15.2 °C 34601.5 hPa ENE 6.8 km/h 6.8 km/h 52 % 0 mm
00:10 -12.5 °C -16.3 °C 34601.5 hPa Calm   2.6 km/h 62 % 0 mm
00:20 -12.8 °C -16.6 °C 34601.5 hPa NNE 5.1 km/h 7.7 km/h 62 % 0 mm
00:30 -12.9 °C -16.6 °C 34601.5 hPa WSW 2.6 km/h 5.1 km/h 63 % 0 mm
00:40 -12.9 °C -16.6 °C 34601.5 hPa SW 5.1 km/h 5.1 km/h 63 % 0 mm
00:50 -12.9 °C -16.6 °C 34601.5 hPa WSW 2.6 km/h 5.1 km/h 63 % 0 mm
01:00 -12.9 °C -16.5 °C 34601.5 hPa WSW 5.1 km/h 7.7 km/h 64 % 0 mm
01:10 -12.9 °C -16.3 °C 34601.5 hPa Calm   7.7 km/h 65 % 0 mm
01:20 -12.8 °C -16.4 °C 34601.5 hPa WSW 5.1 km/h 7.7 km/h 64 % 0 mm
01:30 -12.7 °C -16.3 °C 34601.5 hPa WSW 2.6 km/h 7.7 km/h 64 % 0 mm
01:40 -12.8 °C -16.3 °C 34601.5 hPa Calm   2.6 km/h 64 % 0 mm
01:50 -12.8 °C -16.5 °C 34601.5 hPa SW 2.6 km/h 5.1 km/h 63 % 0 mm
02:00 -12.8 °C -16.5 °C 34635.4 hPa NNE 2.6 km/h 2.6 km/h 63 % 0 mm
02:10 -12.9 °C -16.8 °C 34635.4 hPa NNW 5.1 km/h 5.1 km/h 62 % 0 mm
02:20 -12.8 °C -16.6 °C 34601.5 hPa West 2.6 km/h 5.1 km/h 62 % 0 mm
02:30 -12.5 °C -16.5 °C 34601.5 hPa NNW 5.1 km/h 5.1 km/h 61 % 0 mm
02:40 -12 °C -16.2 °C 34601.5 hPa NE 2.6 km/h 7.7 km/h 60 % 0 mm
02:50 -11.9 °C -16.2 °C 34601.5 hPa NE 7.7 km/h 10.3 km/h 59 % 0 mm
03:00 -11.6 °C -16 °C 34635.4 hPa NE 7.7 km/h 7.7 km/h 58 % 0 mm
03:10 -11.3 °C -15.9 °C 34635.4 hPa NE 2.6 km/h 7.7 km/h 57 % 0 mm
03:20 -11.1 °C -15.8 °C 34635.4 hPa NE 7.7 km/h 10.3 km/h 56 % 0 mm
03:30 -11 °C -15.7 °C 34635.4 hPa NE 5.1 km/h 15.6 km/h 56 % 0 mm
03:40 -10.8 °C -15.7 °C 34635.4 hPa NNE 5.1 km/h 7.7 km/h 55 % 0 mm
03:50 -10.6 °C -15.5 °C 34635.4 hPa NE 5.1 km/h 10.3 km/h 55 % 0 mm
04:00 -10.3 °C -15.2 °C 34635.4 hPa NE 5.1 km/h 7.7 km/h 55 % 0 mm
04:10 -10.2 °C -15.2 °C 34635.4 hPa NE 5.1 km/h 20.8 km/h 54 % 0 mm
04:20 -10 °C -15.2 °C 34601.5 hPa NE 7.7 km/h 10.3 km/h 53 % 0 mm
04:30 -9.8 °C -15.1 °C 34635.4 hPa NE 5.1 km/h 10.3 km/h 53 % 0 mm
04:40 -9.7 °C -14.9 °C 34635.4 hPa NE 7.7 km/h 10.3 km/h 53 % 0 mm
04:50 -9.4 °C -14.9 °C 34635.4 hPa NE 5.1 km/h 10.3 km/h 52 % 0 mm
05:00 -9.3 °C -14.8 °C 34635.4 hPa ENE 5.1 km/h 7.7 km/h 52 % 0 mm
05:10 -9 °C -14.5 °C 34635.4 hPa NE 5.1 km/h 10.3 km/h 52 % 0 mm
05:20 -8.8 °C -14.3 °C 34635.4 hPa NNE 5.1 km/h 7.7 km/h 52 % 0 mm
05:30 -8.5 °C -14 °C 34635.4 hPa NE 7.7 km/h 7.7 km/h 52 % 0 mm
05:40 -8.4 °C -13.9 °C 34635.4 hPa NE 5.1 km/h 7.7 km/h 52 % 0 mm
10:43 -8.1 °C -13.9 °C 34635.4 hPa NW 6 km/h 6 km/h 50 % 0 mm
10:48 -8 °C -13.8 °C 34635.4 hPa ENE 3.1 km/h 3.1 km/h 50 % 0 mm
10:53 -7.8 °C -13.7 °C 34635.4 hPa ENE 9 km/h 9 km/h 50 % 0 mm
10:58 -7.8 °C -13.7 °C 34635.4 hPa South 6 km/h 6 km/h 50 % 0 mm
11:03 -7.6 °C -13.6 °C 34635.4 hPa NE 9 km/h 9 km/h 49 % 0 mm
11:08 -7.5 °C -13.6 °C 34635.4 hPa ENE 6.3 km/h 6.3 km/h 49 % 0 mm
11:13 -7.5 °C -13.6 °C 34635.4 hPa NE 7.6 km/h 7.6 km/h 49 % 0 mm
11:18 -7.4 °C -13.5 °C 34635.4 hPa ENE 11.9 km/h 11.9 km/h 49 % 0 mm
11:23 -7.4 °C -13.7 °C 34635.4 hPa NNW 9 km/h 9 km/h 48 % 0 mm
11:28 -7.3 °C -13.5 °C 34635.4 hPa SW 9 km/h 9 km/h 48 % 0 mm
11:33 -7.2 °C -13.8 °C 34635.4 hPa ENE 15 km/h 15 km/h 46 % 0 mm
11:38 -7 °C -13.4 °C 34635.4 hPa NE 6.3 km/h 6.3 km/h 47 % 0 mm
11:43 -7 °C -13.6 °C 34635.4 hPa East 11.9 km/h 11.9 km/h 46 % 0 mm
11:48 -7.1 °C -13.7 °C 34635.4 hPa West 9 km/h 9 km/h 46 % 0 mm
11:53 -6.7 °C -13.4 °C 34635.4 hPa NW 9 km/h 9 km/h 46 % 0 mm
11:58 -6.5 °C -13.4 °C 34635.4 hPa ENE 6 km/h 6 km/h 45 % 0 mm
12:08 -6.1 °C -13.4 °C 34635.4 hPa South 11.9 km/h 11.9 km/h 43 % 0 mm
12:13 -5.8 °C -13.1 °C 34635.4 hPa NNE 6.8 km/h 6.8 km/h 43 % 0 mm
12:18 -6.2 °C -13.7 °C 34635.4 hPa WNW 11.9 km/h 11.9 km/h 42 % 0 mm
12:23 -6.1 °C -13.8 °C 34635.4 hPa ENE 6 km/h 6 km/h 41 % 0 mm
12:28 -5.7 °C -13.4 °C 34601.5 hPa South 6 km/h 6 km/h 41 % 0 mm
12:33 -5.4 °C -13.1 °C 34601.5 hPa SW 11.9 km/h 11.9 km/h 41 % 0 mm
12:38 -5.2 °C -13.2 °C 34601.5 hPa SW 9 km/h 9 km/h 40 % 0 mm
12:43 -5.3 °C -13.4 °C 34601.5 hPa ESE 15 km/h 15 km/h 39 % 0 mm
12:48 -5.1 °C -13.3 °C 34601.5 hPa ENE 7.6 km/h 7.6 km/h 39 % 0 mm
12:53 -5 °C -13.4 °C 34601.5 hPa WNW 20.9 km/h 20.9 km/h 38 % 0 mm
12:58 -4.8 °C -13.4 °C 34601.5 hPa SW 9 km/h 9 km/h 37 % 0 mm
13:03 -4.9 °C -13.7 °C 34601.5 hPa SW 9 km/h 9 km/h 36 % 0 mm
13:08 -4.4 °C -13.6 °C 34601.5 hPa South 9.3 km/h 9.3 km/h 35 % 0 mm
13:13 -5.1 °C -13.5 °C 34567.7 hPa ENE 11.9 km/h 11.9 km/h 38 % 0 mm
13:23 -5.5 °C -13.6 °C 34567.7 hPa ENE 26.9 km/h 26.9 km/h 39 % 0 mm
13:28 -5.5 °C -13.4 °C 34601.5 hPa ESE 23.8 km/h 23.8 km/h 40 % 0 mm
13:30 -6.9 °C -13.2 °C 34635.4 hPa East 18.2 km/h 20.8 km/h 48 % 0 mm
13:33 -5.8 °C -13.5 °C 34601.5 hPa SSE 23.8 km/h 23.8 km/h 41 % 0 mm
13:38 -5.8 °C -13.3 °C 34601.5 hPa ESE 20.9 km/h 20.9 km/h 42 % 0 mm
13:43 -5.9 °C -13.4 °C 34601.5 hPa ENE 20.9 km/h 20.9 km/h 42 % 0 mm
13:48 -5.8 °C -13.1 °C 34601.5 hPa ESE 20.9 km/h 20.9 km/h 43 % 0 mm
13:53 -5.9 °C -13.2 °C 34601.5 hPa ESE 24.3 km/h 24.3 km/h 43 % 0 mm
13:58 -5.8 °C -12.9 °C 34601.5 hPa ESE 29.8 km/h 29.8 km/h 44 % 0 mm
14:03 -5.9 °C -13 °C 34601.5 hPa ENE 24.3 km/h 24.3 km/h 44 % 0 mm
14:08 -6 °C -12.9 °C 34601.5 hPa ENE 25.1 km/h 25.1 km/h 45 % 0 mm
14:13 -6.1 °C -12.9 °C 34601.5 hPa East 22 km/h 22 km/h 45 % 0 mm
14:23 -6.1 °C -12.6 °C 34601.5 hPa ESE 20.9 km/h 20.9 km/h 47 % 0 mm
14:28 -6.3 °C -12.6 °C 34601.5 hPa East 29.8 km/h 29.8 km/h 48 % 0 mm
14:33 -6.3 °C -12.6 °C 34601.5 hPa ESE 27.2 km/h 27.2 km/h 48 % 0 mm
14:38 -6.2 °C -12.4 °C 34601.5 hPa ESE 23.8 km/h 23.8 km/h 49 % 0 mm
14:43 -6.2 °C -12.4 °C 34601.5 hPa SSE 29.5 km/h 29.5 km/h 49 % 0 mm
14:48 -6.1 °C -12.4 °C 34601.5 hPa ESE 26.9 km/h 26.9 km/h 48 % 0 mm
14:53 -6.1 °C -12.4 °C 34601.5 hPa East 44.7 km/h 44.7 km/h 48 % 0 mm
15:03 -6.1 °C -12.6 °C 34601.5 hPa East 23.8 km/h 23.8 km/h 47 % 0 mm
15:08 -6.1 °C -12.6 °C 34601.5 hPa ESE 34.1 km/h 34.1 km/h 47 % 0 mm
15:13 -6.1 °C -12.4 °C 34601.5 hPa ESE 20.9 km/h 20.9 km/h 48 % 0 mm
15:18 -6.1 °C -12.4 °C 34601.5 hPa SE 20.9 km/h 20.9 km/h 48 % 0 mm
15:23 -6.1 °C -12.4 °C 34601.5 hPa ESE 26.9 km/h 26.9 km/h 48 % 0 mm
15:28 -6.1 °C -12.4 °C 34601.5 hPa ENE 29.8 km/h 29.8 km/h 48 % 0 mm
15:33 -6.2 °C -12.5 °C 34601.5 hPa ESE 26.9 km/h 26.9 km/h 48 % 0 mm
15:38 -6.1 °C -12.4 °C 34601.5 hPa East 20.9 km/h 20.9 km/h 48 % 0 mm
15:43 -6.2 °C -12.3 °C 34601.5 hPa ESE 26.9 km/h 26.9 km/h 49 % 0 mm
15:48 -6.1 °C -12.4 °C 34601.5 hPa ESE 34.9 km/h 34.9 km/h 48 % 0 mm
15:53 -6.3 °C -12.5 °C 34601.5 hPa East 33.2 km/h 33.2 km/h 49 % 0 mm
15:58 -6.3 °C -12.5 °C 34601.5 hPa ENE 32.8 km/h 32.8 km/h 49 % 0 mm
16:03 -6.3 °C -12.3 °C 34601.5 hPa East 23.8 km/h 23.8 km/h 50 % 0 mm
16:08 -6.2 °C -12.2 °C 34601.5 hPa ENE 29.8 km/h 29.8 km/h 50 % 0 mm
16:13 -6.3 °C -12.3 °C 34567.7 hPa ESE 23.8 km/h 23.8 km/h 50 % 0 mm
16:18 -6.3 °C -12.3 °C 34567.7 hPa ENE 26.9 km/h 26.9 km/h 50 % 0 mm
16:23 -6.4 °C -12.4 °C 34567.7 hPa East 29.8 km/h 29.8 km/h 50 % 0 mm
16:28 -6.3 °C -12.3 °C 34601.5 hPa East 17.9 km/h 17.9 km/h 50 % 0 mm
16:33 -6.5 °C -12.4 °C 34601.5 hPa East 35.7 km/h 35.7 km/h 50 % 0 mm
16:38 -6.4 °C -12.4 °C 34601.5 hPa ESE 31.9 km/h 31.9 km/h 50 % 0 mm
16:43 -6.6 °C -12.6 °C 34567.7 hPa NNE 29.8 km/h 29.8 km/h 50 % 0 mm
16:48 -6.5 °C -12.4 °C 34567.7 hPa ENE 23.8 km/h 23.8 km/h 50 % 0 mm
16:53 -6.6 °C -12.6 °C 34567.7 hPa NE 20.9 km/h 20.9 km/h 50 % 0 mm
16:58 -6.5 °C -12.4 °C 34567.7 hPa ENE 26.9 km/h 26.9 km/h 50 % 0 mm
17:03 -6.6 °C -12.6 °C 34567.7 hPa East 23.8 km/h 23.8 km/h 50 % 0 mm
17:08 -6.6 °C -12.6 °C 34567.7 hPa ESE 26.9 km/h 26.9 km/h 50 % 0 mm
17:13 -6.7 °C -12.8 °C 34601.5 hPa ESE 20.9 km/h 20.9 km/h 49 % 0 mm
17:18 -6.6 °C -12.7 °C 34601.5 hPa ENE 20.9 km/h 20.9 km/h 49 % 0 mm
17:23 -6.5 °C -12.7 °C 34601.5 hPa ESE 20.9 km/h 20.9 km/h 49 % 0 mm
17:28 -6.4 °C -12.6 °C 34567.7 hPa ENE 20.9 km/h 20.9 km/h 49 % 0 mm
17:33 -6.4 °C -12.6 °C 34567.7 hPa East 22.5 km/h 22.5 km/h 49 % 0 mm
17:38 -6.6 °C -12.9 °C 34567.7 hPa ENE 25.1 km/h 25.1 km/h 48 % 0 mm
17:43 -6.6 °C -12.9 °C 34567.7 hPa ENE 26.9 km/h 26.9 km/h 48 % 0 mm
17:48 -6.6 °C -12.9 °C 34567.7 hPa East 23.8 km/h 23.8 km/h 48 % 0 mm
17:53 -6.7 °C -12.9 °C 34567.7 hPa ESE 20.9 km/h 20.9 km/h 48 % 0 mm
17:58 -6.7 °C -13 °C 34567.7 hPa ENE 19.6 km/h 19.6 km/h 48 % 0 mm
18:03 -6.8 °C -13.1 °C 34567.7 hPa ENE 20.9 km/h 20.9 km/h 48 % 0 mm
18:08 -6.8 °C -13.1 °C 34567.7 hPa East 26.9 km/h 26.9 km/h 48 % 0 mm
18:14 -6.8 °C -13.1 °C 34567.7 hPa East 20.9 km/h 20.9 km/h 48 % 0 mm
18:19 -6.8 °C -13.2 °C 34567.7 hPa ENE 20.9 km/h 20.9 km/h 47 % 0 mm
18:24 -6.8 °C -13.1 °C 34567.7 hPa ENE 26.9 km/h 26.9 km/h 48 % 0 mm
18:32 -6.9 °C -13.2 °C 34567.7 hPa ENE 9 km/h 14 km/h 48 % 0 mm
18:37 -6.9 °C -13.2 °C 34567.7 hPa East 22 km/h 22 km/h 48 % 0 mm
18:42 -7.1 °C -13.3 °C 34567.7 hPa South 20.9 km/h 20.9 km/h 48 % 0 mm
18:47 -7.1 °C -13.3 °C 34567.7 hPa East 26.9 km/h 26.9 km/h 48 % 0 mm
18:57 -7.2 °C -13.4 °C 34567.7 hPa ESE 23.8 km/h 23.8 km/h 48 % 0 mm
19:02 -7.2 °C -13.5 °C 34567.7 hPa ESE 19.2 km/h 19.2 km/h 48 % 0 mm
19:07 -7.3 °C -13.4 °C 34567.7 hPa East 15 km/h 15 km/h 49 % 0 mm
19:17 -7.4 °C -13.4 °C 34567.7 hPa South 11.9 km/h 14 km/h 49 % 0 mm
19:20 -10.3 °C -12.9 °C 34635.4 hPa NE 2.6 km/h 5.1 km/h 74 % 0 mm
19:22 -7.4 °C -13.5 °C 34567.7 hPa NE 15 km/h 15 km/h 49 % 0 mm
19:27 -7.6 °C -13.6 °C 34601.5 hPa ESE 22 km/h 22 km/h 49 % 0 mm
19:30 -10.4 °C -12.9 °C 34635.4 hPa NE 5.1 km/h 7.7 km/h 74 % 0 mm
19:32 -7.7 °C -13.7 °C 34601.5 hPa ESE 15.6 km/h 17.9 km/h 49 % 0 mm
19:37 -7.7 °C -13.8 °C 34601.5 hPa ENE 17.9 km/h 17.9 km/h 49 % 0 mm
19:40 -10.4 °C -12.8 °C 34635.4 hPa NE 5.1 km/h 7.7 km/h 75 % 0 mm
19:42 -7.8 °C -13.8 °C 34567.7 hPa ESE 20.9 km/h 20.9 km/h 49 % 0 mm
19:47 -7.8 °C -13.7 °C 34567.7 hPa ENE 17.9 km/h 17.9 km/h 50 % 0 mm
19:50 -10.5 °C -12.8 °C 34635.4 hPa NE 7.7 km/h 7.7 km/h 76 % 0 mm
19:57 -7.9 °C -13.8 °C 34601.5 hPa ESE 20.9 km/h 20.9 km/h 50 % 0 mm
20:00 -10.6 °C -12.8 °C 34635.4 hPa NE 5.1 km/h 10.3 km/h 76 % 0 mm
20:02 -8 °C -13.8 °C 34601.5 hPa ESE 11.9 km/h 11.9 km/h 50 % 0 mm
20:10 -10.6 °C -12.9 °C 34635.4 hPa NE 2.6 km/h 5.1 km/h 76 % 0 mm
20:12 -8.2 °C -13.8 °C 34601.5 hPa ESE 20.9 km/h 20.9 km/h 51 % 0 mm
20:17 -8.2 °C -13.9 °C 34601.5 hPa ENE 17.9 km/h 17.9 km/h 51 % 0 mm
20:20 -10.7 °C -12.9 °C 34635.4 hPa Calm   5.1 km/h 76 % 0 mm
20:22 -8.3 °C -13.8 °C 34601.5 hPa SE 17.9 km/h 17.9 km/h 52 % 0 mm
20:27 -8.4 °C -13.7 °C 34601.5 hPa ESE 15 km/h 15 km/h 53 % 0 mm
20:30 -10.8 °C -12.9 °C 34635.4 hPa Calm     77 % 0 mm
20:32 -8.4 °C -13.7 °C 34601.5 hPa ESE 23.8 km/h 23.8 km/h 54 % 0 mm
20:37 -8.6 °C -13.6 °C 34601.5 hPa ESE 15 km/h 15 km/h 55 % 0 mm
20:40 -10.9 °C -13.3 °C 34635.4 hPa Calm   5.1 km/h 75 % 0 mm
20:42 -8.6 °C -13.7 °C 34601.5 hPa ESE 20.9 km/h 20.9 km/h 55 % 0 mm
20:47 -8.7 °C -13.6 °C 34601.5 hPa ENE 11.9 km/h 11.9 km/h 56 % 0 mm
20:50 -11 °C -13.4 °C 34635.4 hPa SW 5.1 km/h 5.1 km/h 75 % 0 mm
20:52 -8.8 °C -13.5 °C 34601.5 hPa ENE 15 km/h 15 km/h 57 % 0 mm
20:57 -8.8 °C -13.4 °C 34601.5 hPa ENE 15 km/h 15 km/h 58 % 0 mm
21:00 -11.1 °C -13.3 °C 34635.4 hPa SW 2.6 km/h 5.1 km/h 77 % 0 mm
21:02 -8.8 °C -13.3 °C 34601.5 hPa ENE 12.2 km/h 12.2 km/h 59 % 0 mm
21:07 -8.9 °C -13.4 °C 34601.5 hPa ENE 11.9 km/h 11.9 km/h 59 % 0 mm
21:10 -11.1 °C -13.2 °C 34635.4 hPa Calm   2.6 km/h 78 % 0 mm
21:12 -9 °C -13.3 °C 34601.5 hPa ENE 11.9 km/h 11.9 km/h 60 % 0 mm
21:17 -9.1 °C -13.2 °C 34601.5 hPa East 6.8 km/h 6.8 km/h 61 % 0 mm
21:19 -9.1 °C -13.3 °C 34601.5 hPa East 11.9 km/h 11.9 km/h 61 % 0 mm
21:24 -9.2 °C -13.3 °C 34601.5 hPa ESE 9.3 km/h 9.3 km/h 61 % 0 mm
21:30 -11.2 °C -13.2 °C 34635.4 hPa Calm     79 % 0 mm
21:39 -9.3 °C -13.4 °C 34601.5 hPa ENE 11.9 km/h 11.9 km/h 62 % 0 mm
21:40 -11.2 °C -13.2 °C 34635.4 hPa Calm     79 % 0 mm
21:44 -9.3 °C -13.2 °C 34601.5 hPa NE 6.3 km/h 6.3 km/h 63 % 0 mm
21:49 -9.4 °C -13.3 °C 34601.5 hPa ENE 9.3 km/h 9.3 km/h 63 % 0 mm
21:50 -11.2 °C -13.2 °C 34635.4 hPa Calm     79 % 0 mm
21:54 -9.4 °C -13.3 °C 34601.5 hPa NNE 6.8 km/h 6.8 km/h 63 % 0 mm
21:59 -9.5 °C -13.2 °C 34635.4 hPa ENE 11.9 km/h 11.9 km/h 64 % 0 mm
22:00 -11.3 °C -13.2 °C 34635.4 hPa North 2.6 km/h 5.1 km/h 79 % 0 mm
22:05 -11.5 °C -13.6 °C 34635.4 hPa Calm   5.1 km/h 78 % 0 mm
22:09 -9.6 °C -13.2 °C 34635.4 hPa NNE 15 km/h 15 km/h 65 % 0 mm
22:14 -9.6 °C -13.2 °C 34635.4 hPa ENE 15 km/h 15 km/h 65 % 0 mm
22:15 -11.6 °C -13.7 °C 34635.4 hPa WSW 2.6 km/h 7.7 km/h 78 % 0 mm
22:19 -9.7 °C -13.2 °C 34635.4 hPa NE 15 km/h 15 km/h 66 % 0 mm
22:24 -9.7 °C -13.2 °C 34635.4 hPa ENE 11.9 km/h 11.9 km/h 66 % 0 mm
22:25 -11.7 °C -13.6 °C 34601.5 hPa Calm     79 % 0 mm
22:29 -9.8 °C -13.2 °C 34635.4 hPa NNE 9 km/h 9.3 km/h 67 % 0 mm
22:34 -9.8 °C -13.2 °C 34635.4 hPa ENE 11.9 km/h 11.9 km/h 67 % 0 mm
22:35 -11.7 °C -13.6 °C 34601.5 hPa Calm     80 % 0 mm
22:39 -9.9 °C -13.1 °C 34635.4 hPa NNE 9 km/h 9 km/h 68 % 0 mm
22:44 -9.9 °C -13.2 °C 34635.4 hPa ENE 11.9 km/h 11.9 km/h 68 % 0 mm
22:45 -11.8 °C -13.6 °C 34635.4 hPa Calm     80 % 0 mm
22:49 -10 °C -13.2 °C 34635.4 hPa NNE 11.9 km/h 11.9 km/h 68 % 0 mm
22:54 -10 °C -13.1 °C 34635.4 hPa NNE 11.9 km/h 11.9 km/h 69 % 0 mm
22:55 -11.8 °C -13.7 °C 34635.4 hPa Calm     80 % 0 mm
22:59 -10.1 °C -13.2 °C 34635.4 hPa ENE 9 km/h 9 km/h 69 % 0 mm
23:04 -10.1 °C -13.1 °C 34635.4 hPa East 11.9 km/h 11.9 km/h 70 % 0 mm
23:09 -10.1 °C -13.1 °C 34635.4 hPa ENE 9.8 km/h 9.8 km/h 70 % 0 mm
23:14 -10.2 °C -13.2 °C 34635.4 hPa NE 9 km/h 9 km/h 70 % 0 mm
23:15 -12 °C -13.9 °C 34601.5 hPa Calm   2.6 km/h 79 % 0 mm
23:19 -10.2 °C -13 °C 34635.4 hPa ENE 6.3 km/h 6.8 km/h 71 % 0 mm
23:24 -10.2 °C -13 °C 34635.4 hPa NNE 9 km/h 9 km/h 71 % 0 mm
23:25 -12.1 °C -13.9 °C 34601.5 hPa Calm     80 % 0 mm
23:29 -10.2 °C -12.9 °C 34635.4 hPa NNE 9 km/h 9 km/h 72 % 0 mm
23:34 -10.2 °C -12.9 °C 34635.4 hPa ENE 6 km/h 6 km/h 72 % 0 mm
23:35 -12.1 °C -13.8 °C 34601.5 hPa SW 2.6 km/h 2.6 km/h 81 % 0 mm
23:39 -10.3 °C -13 °C 34635.4 hPa ENE 6 km/h 6.8 km/h 72 % 0 mm
23:44 -10.3 °C -13 °C 34635.4 hPa NNE 6 km/h 6 km/h 72 % 0 mm
23:45 -12.2 °C -14 °C 34601.5 hPa Calm     80 % 0 mm
23:49 -10.3 °C -12.9 °C 34635.4 hPa NE 6.3 km/h 6.3 km/h 73 % 0 mm
23:54 -10.3 °C -12.9 °C 34635.4 hPa ENE 9 km/h 9 km/h 73 % 0 mm
23:55 -12.2 °C -14.1 °C 34601.5 hPa Calm     80 % 0 mm
23:59 -10.3 °C -12.9 °C 34635.4 hPa NNE 7.6 km/h 7.6 km/h 74 % 0 mm
Meteo Sesrovires
Elogis d' Weather Underground - 1.5 mb

Guio original per  Jim McMurry - jmcmurry@mwt.net Adaptat per a la plantilla per  Wim van der Kuil - Leuven-Template.eu

Trobareu la nostra informacio del temps tambe a:

Weather Underground

AWEKAS